sensor_id;sensor_type;location;lat;lon;timestamp;P1;durP1;ratioP1;P2;durP2;ratioP2
9334;SDS011;4706;41.844;26.082;2023-07-13T00:01:17;16.70;;;13.40;;
9334;SDS011;4706;41.844;26.082;2023-07-13T00:03:42;15.60;;;13.88;;
9334;SDS011;4706;41.844;26.082;2023-07-13T00:06:08;15.98;;;14.38;;
9334;SDS011;4706;41.844;26.082;2023-07-13T00:08:34;16.50;;;14.68;;
9334;SDS011;4706;41.844;26.082;2023-07-13T00:11:00;16.17;;;14.55;;
9334;SDS011;4706;41.844;26.082;2023-07-13T00:13:27;16.73;;;15.02;;
9334;SDS011;4706;41.844;26.082;2023-07-13T00:15:53;16.05;;;14.55;;
9334;SDS011;4706;41.844;26.082;2023-07-13T00:18:19;19.40;;;17.83;;
9334;SDS011;4706;41.844;26.082;2023-07-13T00:20:45;19.40;;;17.65;;
9334;SDS011;4706;41.844;26.082;2023-07-13T00:23:11;19.77;;;18.05;;
9334;SDS011;4706;41.844;26.082;2023-07-13T00:25:37;19.60;;;17.70;;
9334;SDS011;4706;41.844;26.082;2023-07-13T00:28:03;19.55;;;17.85;;
9334;SDS011;4706;41.844;26.082;2023-07-13T00:30:29;18.05;;;16.23;;
9334;SDS011;4706;41.844;26.082;2023-07-13T00:32:55;17.95;;;16.42;;
9334;SDS011;4706;41.844;26.082;2023-07-13T00:35:20;17.63;;;16.08;;
9334;SDS011;4706;41.844;26.082;2023-07-13T00:37:46;16.67;;;15.27;;
9334;SDS011;4706;41.844;26.082;2023-07-13T00:40:12;17.10;;;15.55;;
9334;SDS011;4706;41.844;26.082;2023-07-13T00:42:39;16.83;;;15.13;;
9334;SDS011;4706;41.844;26.082;2023-07-13T00:47:36;16.38;;;14.85;;
9334;SDS011;4706;41.844;26.082;2023-07-13T00:50:02;16.27;;;14.75;;
9334;SDS011;4706;41.844;26.082;2023-07-13T00:52:31;16.35;;;14.20;;
9334;SDS011;4706;41.844;26.082;2023-07-13T00:54:57;16.42;;;14.93;;
9334;SDS011;4706;41.844;26.082;2023-07-13T00:57:23;16.00;;;14.60;;
9334;SDS011;4706;41.844;26.082;2023-07-13T00:59:54;14.68;;;13.48;;
9334;SDS011;4706;41.844;26.082;2023-07-13T01:02:24;15.40;;;14.07;;
9334;SDS011;4706;41.844;26.082;2023-07-13T01:04:51;15.25;;;13.77;;
9334;SDS011;4706;41.844;26.082;2023-07-13T01:07:17;17.65;;;14.05;;
9334;SDS011;4706;41.844;26.082;2023-07-13T01:09:43;15.43;;;14.13;;
9334;SDS011;4706;41.844;26.082;2023-07-13T01:12:10;16.15;;;14.65;;
9334;SDS011;4706;41.844;26.082;2023-07-13T01:14:36;15.85;;;14.40;;
9334;SDS011;4706;41.844;26.082;2023-07-13T01:17:02;14.93;;;13.73;;
9334;SDS011;4706;41.844;26.082;2023-07-13T01:19:38;15.48;;;13.98;;
9334;SDS011;4706;41.844;26.082;2023-07-13T01:22:17;15.98;;;14.60;;
9334;SDS011;4706;41.844;26.082;2023-07-13T01:24:44;16.85;;;15.05;;
9334;SDS011;4706;41.844;26.082;2023-07-13T01:27:13;16.55;;;14.98;;
9334;SDS011;4706;41.844;26.082;2023-07-13T01:29:41;17.33;;;15.60;;
9334;SDS011;4706;41.844;26.082;2023-07-13T01:32:12;16.75;;;15.15;;
9334;SDS011;4706;41.844;26.082;2023-07-13T01:34:39;16.15;;;14.73;;
9334;SDS011;4706;41.844;26.082;2023-07-13T01:37:09;16.67;;;15.38;;
9334;SDS011;4706;41.844;26.082;2023-07-13T01:39:37;17.25;;;15.65;;
9334;SDS011;4706;41.844;26.082;2023-07-13T01:42:03;16.38;;;14.77;;
9334;SDS011;4706;41.844;26.082;2023-07-13T01:44:28;16.73;;;15.23;;
9334;SDS011;4706;41.844;26.082;2023-07-13T01:46:54;15.25;;;13.95;;
9334;SDS011;4706;41.844;26.082;2023-07-13T01:49:20;15.70;;;14.30;;
9334;SDS011;4706;41.844;26.082;2023-07-13T01:51:45;16.80;;;15.10;;
9334;SDS011;4706;41.844;26.082;2023-07-13T01:54:11;17.05;;;15.35;;
9334;SDS011;4706;41.844;26.082;2023-07-13T01:56:36;17.63;;;16.02;;
9334;SDS011;4706;41.844;26.082;2023-07-13T01:59:02;17.13;;;15.60;;
9334;SDS011;4706;41.844;26.082;2023-07-13T02:01:27;17.58;;;15.88;;
9334;SDS011;4706;41.844;26.082;2023-07-13T02:03:53;17.20;;;15.80;;
9334;SDS011;4706;41.844;26.082;2023-07-13T02:06:18;16.15;;;14.52;;
9334;SDS011;4706;41.844;26.082;2023-07-13T02:08:44;16.48;;;14.95;;
9334;SDS011;4706;41.844;26.082;2023-07-13T02:11:10;16.25;;;14.77;;
9334;SDS011;4706;41.844;26.082;2023-07-13T02:13:35;17.20;;;15.70;;
9334;SDS011;4706;41.844;26.082;2023-07-13T02:16:00;15.10;;;13.73;;
9334;SDS011;4706;41.844;26.082;2023-07-13T02:18:26;15.48;;;14.10;;
9334;SDS011;4706;41.844;26.082;2023-07-13T02:20:52;16.10;;;14.70;;
9334;SDS011;4706;41.844;26.082;2023-07-13T02:23:18;16.85;;;15.32;;
9334;SDS011;4706;41.844;26.082;2023-07-13T02:25:44;15.98;;;14.32;;
9334;SDS011;4706;41.844;26.082;2023-07-13T02:28:10;15.60;;;14.20;;
9334;SDS011;4706;41.844;26.082;2023-07-13T02:30:35;15.65;;;14.25;;
9334;SDS011;4706;41.844;26.082;2023-07-13T02:33:01;16.58;;;15.07;;
9334;SDS011;4706;41.844;26.082;2023-07-13T02:35:27;16.70;;;15.20;;
9334;SDS011;4706;41.844;26.082;2023-07-13T02:37:53;17.25;;;15.43;;
9334;SDS011;4706;41.844;26.082;2023-07-13T02:40:18;17.02;;;15.45;;
9334;SDS011;4706;41.844;26.082;2023-07-13T02:42:44;18.05;;;16.13;;
9334;SDS011;4706;41.844;26.082;2023-07-13T02:45:10;16.73;;;15.15;;
9334;SDS011;4706;41.844;26.082;2023-07-13T02:47:36;17.02;;;15.27;;
9334;SDS011;4706;41.844;26.082;2023-07-13T02:50:02;19.08;;;16.58;;
9334;SDS011;4706;41.844;26.082;2023-07-13T02:52:28;23.13;;;15.60;;
9334;SDS011;4706;41.844;26.082;2023-07-13T02:54:53;27.48;;;16.65;;
9334;SDS011;4706;41.844;26.082;2023-07-13T02:57:19;34.85;;;16.48;;
9334;SDS011;4706;41.844;26.082;2023-07-13T02:59:44;29.30;;;15.88;;
9334;SDS011;4706;41.844;26.082;2023-07-13T03:02:10;35.10;;;17.70;;
9334;SDS011;4706;41.844;26.082;2023-07-13T03:04:36;43.30;;;17.83;;
9334;SDS011;4706;41.844;26.082;2023-07-13T03:07:02;41.80;;;16.75;;
9334;SDS011;4706;41.844;26.082;2023-07-13T03:09:29;41.03;;;17.20;;
9334;SDS011;4706;41.844;26.082;2023-07-13T03:11:56;41.92;;;17.13;;
9334;SDS011;4706;41.844;26.082;2023-07-13T03:14:21;45.40;;;17.80;;
9334;SDS011;4706;41.844;26.082;2023-07-13T03:16:48;45.65;;;17.27;;
9334;SDS011;4706;41.844;26.082;2023-07-13T03:19:14;38.40;;;16.65;;
9334;SDS011;4706;41.844;26.082;2023-07-13T03:21:40;36.92;;;16.75;;
9334;SDS011;4706;41.844;26.082;2023-07-13T03:24:06;38.90;;;17.02;;
9334;SDS011;4706;41.844;26.082;2023-07-13T03:26:32;25.50;;;14.90;;
9334;SDS011;4706;41.844;26.082;2023-07-13T03:28:57;23.80;;;15.25;;
9334;SDS011;4706;41.844;26.082;2023-07-13T03:31:25;25.42;;;14.30;;
9334;SDS011;4706;41.844;26.082;2023-07-13T03:33:53;20.50;;;14.70;;
9334;SDS011;4706;41.844;26.082;2023-07-13T03:36:21;19.20;;;13.98;;
9334;SDS011;4706;41.844;26.082;2023-07-13T03:38:49;16.65;;;14.45;;
9334;SDS011;4706;41.844;26.082;2023-07-13T03:41:17;20.08;;;15.00;;
9334;SDS011;4706;41.844;26.082;2023-07-13T03:43:43;27.10;;;14.25;;
9334;SDS011;4706;41.844;26.082;2023-07-13T03:46:08;20.58;;;14.90;;
9334;SDS011;4706;41.844;26.082;2023-07-13T03:48:34;17.23;;;14.65;;
9334;SDS011;4706;41.844;26.082;2023-07-13T03:51:00;16.95;;;14.27;;
9334;SDS011;4706;41.844;26.082;2023-07-13T03:53:26;14.93;;;13.52;;
9334;SDS011;4706;41.844;26.082;2023-07-13T03:55:51;16.02;;;14.15;;
9334;SDS011;4706;41.844;26.082;2023-07-13T03:58:24;15.15;;;13.52;;
9334;SDS011;4706;41.844;26.082;2023-07-13T04:00:51;13.70;;;12.50;;
9334;SDS011;4706;41.844;26.082;2023-07-13T04:03:16;14.48;;;13.13;;
9334;SDS011;4706;41.844;26.082;2023-07-13T04:05:42;15.00;;;13.60;;
9334;SDS011;4706;41.844;26.082;2023-07-13T04:08:08;13.90;;;12.52;;
9334;SDS011;4706;41.844;26.082;2023-07-13T04:10:33;14.73;;;13.40;;
9334;SDS011;4706;41.844;26.082;2023-07-13T04:12:59;18.40;;;14.45;;
9334;SDS011;4706;41.844;26.082;2023-07-13T04:15:24;15.40;;;13.82;;
9334;SDS011;4706;41.844;26.082;2023-07-13T04:17:50;14.52;;;13.02;;
9334;SDS011;4706;41.844;26.082;2023-07-13T04:20:15;14.95;;;13.40;;
9334;SDS011;4706;41.844;26.082;2023-07-13T04:22:41;22.15;;;14.93;;
9334;SDS011;4706;41.844;26.082;2023-07-13T04:25:06;17.15;;;14.27;;
9334;SDS011;4706;41.844;26.082;2023-07-13T04:27:32;17.80;;;13.63;;
9334;SDS011;4706;41.844;26.082;2023-07-13T04:29:58;15.50;;;13.93;;
9334;SDS011;4706;41.844;26.082;2023-07-13T04:32:23;16.23;;;14.52;;
9334;SDS011;4706;41.844;26.082;2023-07-13T04:34:49;23.50;;;14.57;;
9334;SDS011;4706;41.844;26.082;2023-07-13T04:37:18;17.95;;;15.00;;
9334;SDS011;4706;41.844;26.082;2023-07-13T04:39:44;18.58;;;14.20;;
9334;SDS011;4706;41.844;26.082;2023-07-13T04:42:09;16.58;;;14.90;;
9334;SDS011;4706;41.844;26.082;2023-07-13T04:44:35;16.52;;;14.80;;
9334;SDS011;4706;41.844;26.082;2023-07-13T04:47:00;17.52;;;14.75;;
9334;SDS011;4706;41.844;26.082;2023-07-13T04:49:26;16.25;;;14.40;;
9334;SDS011;4706;41.844;26.082;2023-07-13T04:51:52;16.88;;;14.05;;
9334;SDS011;4706;41.844;26.082;2023-07-13T04:54:17;20.27;;;15.60;;
9334;SDS011;4706;41.844;26.082;2023-07-13T04:56:43;16.80;;;15.13;;
9334;SDS011;4706;41.844;26.082;2023-07-13T04:59:08;18.50;;;15.93;;
9334;SDS011;4706;41.844;26.082;2023-07-13T05:01:34;20.58;;;15.50;;
9334;SDS011;4706;41.844;26.082;2023-07-13T05:03:59;16.17;;;14.13;;
9334;SDS011;4706;41.844;26.082;2023-07-13T05:06:25;19.55;;;14.88;;
9334;SDS011;4706;41.844;26.082;2023-07-13T05:08:50;22.25;;;16.23;;
9334;SDS011;4706;41.844;26.082;2023-07-13T05:11:17;27.05;;;16.15;;
9334;SDS011;4706;41.844;26.082;2023-07-13T05:13:43;21.00;;;15.95;;
9334;SDS011;4706;41.844;26.082;2023-07-13T05:16:09;16.92;;;14.80;;
9334;SDS011;4706;41.844;26.082;2023-07-13T05:18:35;23.67;;;16.08;;
9334;SDS011;4706;41.844;26.082;2023-07-13T05:21:05;20.75;;;15.70;;
9334;SDS011;4706;41.844;26.082;2023-07-13T05:23:33;20.10;;;15.20;;
9334;SDS011;4706;41.844;26.082;2023-07-13T05:26:00;23.65;;;15.48;;
9334;SDS011;4706;41.844;26.082;2023-07-13T05:28:27;18.13;;;15.65;;
9334;SDS011;4706;41.844;26.082;2023-07-13T05:30:53;17.45;;;15.45;;
9334;SDS011;4706;41.844;26.082;2023-07-13T05:33:19;17.50;;;15.68;;
9334;SDS011;4706;41.844;26.082;2023-07-13T05:35:45;19.77;;;15.70;;
9334;SDS011;4706;41.844;26.082;2023-07-13T05:38:10;20.40;;;14.63;;
9334;SDS011;4706;41.844;26.082;2023-07-13T05:40:37;20.05;;;14.40;;
9334;SDS011;4706;41.844;26.082;2023-07-13T05:43:02;18.15;;;15.55;;
9334;SDS011;4706;41.844;26.082;2023-07-13T05:45:29;17.20;;;15.32;;
9334;SDS011;4706;41.844;26.082;2023-07-13T05:47:54;17.42;;;14.50;;
9334;SDS011;4706;41.844;26.082;2023-07-13T05:50:20;18.27;;;15.77;;
9334;SDS011;4706;41.844;26.082;2023-07-13T05:52:46;17.75;;;16.10;;
9334;SDS011;4706;41.844;26.082;2023-07-13T05:55:12;22.63;;;20.58;;
9334;SDS011;4706;41.844;26.082;2023-07-13T05:57:37;16.30;;;14.80;;
9334;SDS011;4706;41.844;26.082;2023-07-13T06:00:03;16.58;;;15.00;;
9334;SDS011;4706;41.844;26.082;2023-07-13T06:02:28;18.13;;;16.35;;
9334;SDS011;4706;41.844;26.082;2023-07-13T06:04:54;24.20;;;20.15;;
9334;SDS011;4706;41.844;26.082;2023-07-13T06:07:19;18.65;;;15.35;;
9334;SDS011;4706;41.844;26.082;2023-07-13T06:09:45;16.77;;;15.18;;
9334;SDS011;4706;41.844;26.082;2023-07-13T06:12:10;17.93;;;16.27;;
9334;SDS011;4706;41.844;26.082;2023-07-13T06:14:36;16.17;;;14.52;;
9334;SDS011;4706;41.844;26.082;2023-07-13T06:17:01;16.10;;;14.68;;
9334;SDS011;4706;41.844;26.082;2023-07-13T06:19:27;17.83;;;16.33;;
9334;SDS011;4706;41.844;26.082;2023-07-13T06:21:53;17.50;;;15.77;;
9334;SDS011;4706;41.844;26.082;2023-07-13T06:24:18;16.90;;;15.50;;
9334;SDS011;4706;41.844;26.082;2023-07-13T06:26:44;17.20;;;15.38;;
9334;SDS011;4706;41.844;26.082;2023-07-13T06:29:09;17.13;;;15.35;;
9334;SDS011;4706;41.844;26.082;2023-07-13T06:31:35;17.60;;;16.00;;
9334;SDS011;4706;41.844;26.082;2023-07-13T06:34:00;17.15;;;15.73;;
9334;SDS011;4706;41.844;26.082;2023-07-13T06:36:26;22.23;;;18.35;;
9334;SDS011;4706;41.844;26.082;2023-07-13T06:38:52;17.45;;;15.70;;
9334;SDS011;4706;41.844;26.082;2023-07-13T06:41:17;17.50;;;15.88;;
9334;SDS011;4706;41.844;26.082;2023-07-13T06:43:42;17.02;;;15.48;;
9334;SDS011;4706;41.844;26.082;2023-07-13T06:46:08;17.60;;;16.00;;
9334;SDS011;4706;41.844;26.082;2023-07-13T06:48:35;17.38;;;15.68;;
9334;SDS011;4706;41.844;26.082;2023-07-13T06:51:01;17.55;;;15.95;;
9334;SDS011;4706;41.844;26.082;2023-07-13T06:53:27;17.48;;;15.77;;
9334;SDS011;4706;41.844;26.082;2023-07-13T06:55:53;17.60;;;15.95;;
9334;SDS011;4706;41.844;26.082;2023-07-13T06:58:18;17.27;;;15.77;;
9334;SDS011;4706;41.844;26.082;2023-07-13T07:00:45;18.27;;;16.30;;
9334;SDS011;4706;41.844;26.082;2023-07-13T07:03:11;19.15;;;16.40;;
9334;SDS011;4706;41.844;26.082;2023-07-13T07:05:36;21.17;;;16.52;;
9334;SDS011;4706;41.844;26.082;2023-07-13T07:08:02;17.33;;;15.65;;
9334;SDS011;4706;41.844;26.082;2023-07-13T07:10:29;17.00;;;15.38;;
9334;SDS011;4706;41.844;26.082;2023-07-13T07:12:55;17.05;;;15.45;;
9334;SDS011;4706;41.844;26.082;2023-07-13T07:15:21;18.30;;;16.40;;
9334;SDS011;4706;41.844;26.082;2023-07-13T07:17:46;16.63;;;15.30;;
9334;SDS011;4706;41.844;26.082;2023-07-13T07:20:12;17.35;;;15.95;;
9334;SDS011;4706;41.844;26.082;2023-07-13T07:22:38;18.23;;;16.42;;
9334;SDS011;4706;41.844;26.082;2023-07-13T07:25:03;16.90;;;15.20;;
9334;SDS011;4706;41.844;26.082;2023-07-13T07:27:29;17.75;;;15.82;;
9334;SDS011;4706;41.844;26.082;2023-07-13T07:29:55;17.92;;;16.13;;
9334;SDS011;4706;41.844;26.082;2023-07-13T07:32:22;17.92;;;16.02;;
9334;SDS011;4706;41.844;26.082;2023-07-13T07:34:48;18.73;;;16.98;;
9334;SDS011;4706;41.844;26.082;2023-07-13T07:37:14;17.40;;;15.70;;
9334;SDS011;4706;41.844;26.082;2023-07-13T07:39:39;16.90;;;15.38;;
9334;SDS011;4706;41.844;26.082;2023-07-13T07:42:05;17.55;;;16.05;;
9334;SDS011;4706;41.844;26.082;2023-07-13T07:44:31;16.85;;;15.30;;
9334;SDS011;4706;41.844;26.082;2023-07-13T07:46:58;17.40;;;15.80;;
9334;SDS011;4706;41.844;26.082;2023-07-13T07:49:23;16.30;;;14.82;;
9334;SDS011;4706;41.844;26.082;2023-07-13T07:51:49;17.13;;;15.48;;
9334;SDS011;4706;41.844;26.082;2023-07-13T07:54:15;22.35;;;15.82;;
9334;SDS011;4706;41.844;26.082;2023-07-13T07:56:40;18.52;;;15.00;;
9334;SDS011;4706;41.844;26.082;2023-07-13T07:59:06;15.18;;;13.88;;
9334;SDS011;4706;41.844;26.082;2023-07-13T08:01:31;17.42;;;14.63;;
9334;SDS011;4706;41.844;26.082;2023-07-13T08:03:58;16.10;;;14.48;;
9334;SDS011;4706;41.844;26.082;2023-07-13T08:06:23;15.23;;;13.90;;
9334;SDS011;4706;41.844;26.082;2023-07-13T08:08:49;19.20;;;15.43;;
9334;SDS011;4706;41.844;26.082;2023-07-13T08:11:15;16.70;;;15.00;;
9334;SDS011;4706;41.844;26.082;2023-07-13T08:13:42;16.98;;;15.48;;
9334;SDS011;4706;41.844;26.082;2023-07-13T08:16:07;15.20;;;13.82;;
9334;SDS011;4706;41.844;26.082;2023-07-13T08:18:33;15.27;;;13.93;;
9334;SDS011;4706;41.844;26.082;2023-07-13T08:21:02;14.40;;;13.05;;
9334;SDS011;4706;41.844;26.082;2023-07-13T08:23:29;15.40;;;14.00;;
9334;SDS011;4706;41.844;26.082;2023-07-13T08:25:55;14.93;;;13.63;;
9334;SDS011;4706;41.844;26.082;2023-07-13T08:28:21;20.35;;;14.38;;
9334;SDS011;4706;41.844;26.082;2023-07-13T08:30:47;14.88;;;13.10;;
9334;SDS011;4706;41.844;26.082;2023-07-13T08:33:17;14.70;;;13.30;;
9334;SDS011;4706;41.844;26.082;2023-07-13T08:35:46;14.32;;;13.13;;
9334;SDS011;4706;41.844;26.082;2023-07-13T08:38:12;14.60;;;13.15;;
9334;SDS011;4706;41.844;26.082;2023-07-13T08:40:38;15.57;;;14.07;;
9334;SDS011;4706;41.844;26.082;2023-07-13T08:43:06;15.15;;;13.65;;
9334;SDS011;4706;41.844;26.082;2023-07-13T08:45:52;22.38;;;14.73;;
9334;SDS011;4706;41.844;26.082;2023-07-13T08:53:52;13.70;;;12.63;;
9334;SDS011;4706;41.844;26.082;2023-07-13T08:56:22;14.15;;;13.05;;
9334;SDS011;4706;41.844;26.082;2023-07-13T08:58:53;18.42;;;16.92;;
9334;SDS011;4706;41.844;26.082;2023-07-13T09:06:34;13.80;;;12.80;;
9334;SDS011;4706;41.844;26.082;2023-07-13T09:12:25;14.80;;;13.32;;
9334;SDS011;4706;41.844;26.082;2023-07-13T09:14:59;14.35;;;13.15;;
9334;SDS011;4706;41.844;26.082;2023-07-13T09:17:34;16.38;;;14.63;;
9334;SDS011;4706;41.844;26.082;2023-07-13T09:20:04;13.52;;;12.45;;
9334;SDS011;4706;41.844;26.082;2023-07-13T09:22:48;13.77;;;12.73;;
9334;SDS011;4706;41.844;26.082;2023-07-13T09:27:43;14.88;;;13.38;;
9334;SDS011;4706;41.844;26.082;2023-07-13T09:30:17;14.02;;;12.63;;
9334;SDS011;4706;41.844;26.082;2023-07-13T09:32:51;14.25;;;12.98;;
9334;SDS011;4706;41.844;26.082;2023-07-13T09:35:23;13.88;;;12.55;;
9334;SDS011;4706;41.844;26.082;2023-07-13T09:37:57;13.85;;;12.82;;
9334;SDS011;4706;41.844;26.082;2023-07-13T09:40:47;14.77;;;13.48;;
9334;SDS011;4706;41.844;26.082;2023-07-13T09:43:20;14.05;;;12.65;;
9334;SDS011;4706;41.844;26.082;2023-07-13T09:45:46;14.23;;;12.80;;
9334;SDS011;4706;41.844;26.082;2023-07-13T09:48:15;12.93;;;11.80;;
9334;SDS011;4706;41.844;26.082;2023-07-13T09:50:42;13.10;;;12.00;;
9334;SDS011;4706;41.844;26.082;2023-07-13T09:53:13;12.77;;;11.77;;
9334;SDS011;4706;41.844;26.082;2023-07-13T09:55:40;12.82;;;11.52;;
9334;SDS011;4706;41.844;26.082;2023-07-13T10:01:21;12.57;;;11.50;;
9334;SDS011;4706;41.844;26.082;2023-07-13T10:03:51;13.05;;;11.82;;
9334;SDS011;4706;41.844;26.082;2023-07-13T10:06:21;12.13;;;11.13;;
9334;SDS011;4706;41.844;26.082;2023-07-13T10:08:47;11.85;;;10.65;;
9334;SDS011;4706;41.844;26.082;2023-07-13T10:16:30;11.23;;;10.23;;
9334;SDS011;4706;41.844;26.082;2023-07-13T10:18:58;11.70;;;10.80;;
9334;SDS011;4706;41.844;26.082;2023-07-13T10:26:52;11.50;;;10.50;;
9334;SDS011;4706;41.844;26.082;2023-07-13T10:29:22;11.15;;;10.23;;
9334;SDS011;4706;41.844;26.082;2023-07-13T10:31:51;11.93;;;10.77;;
9334;SDS011;4706;41.844;26.082;2023-07-13T10:34:16;13.50;;;11.70;;
9334;SDS011;4706;41.844;26.082;2023-07-13T10:36:46;11.13;;;10.00;;
9334;SDS011;4706;41.844;26.082;2023-07-13T10:39:17;10.30;;;9.50;;
9334;SDS011;4706;41.844;26.082;2023-07-13T10:41:46;10.40;;;9.40;;
9334;SDS011;4706;41.844;26.082;2023-07-13T10:44:23;9.02;;;8.23;;
9334;SDS011;4706;41.844;26.082;2023-07-13T10:46:53;10.23;;;8.88;;
9334;SDS011;4706;41.844;26.082;2023-07-13T10:49:31;9.43;;;8.68;;
9334;SDS011;4706;41.844;26.082;2023-07-13T10:51:58;10.27;;;9.48;;
9334;SDS011;4706;41.844;26.082;2023-07-13T10:54:33;9.52;;;8.57;;
9334;SDS011;4706;41.844;26.082;2023-07-13T10:57:14;8.23;;;7.53;;
9334;SDS011;4706;41.844;26.082;2023-07-13T10:59:43;8.70;;;7.90;;
9334;SDS011;4706;41.844;26.082;2023-07-13T11:02:15;9.20;;;8.32;;
9334;SDS011;4706;41.844;26.082;2023-07-13T11:04:49;9.23;;;8.30;;
9334;SDS011;4706;41.844;26.082;2023-07-13T11:09:48;8.40;;;7.65;;
9334;SDS011;4706;41.844;26.082;2023-07-13T11:28:16;7.38;;;6.50;;
9334;SDS011;4706;41.844;26.082;2023-07-13T11:30:43;7.20;;;6.65;;
9334;SDS011;4706;41.844;26.082;2023-07-13T11:35:49;6.50;;;5.90;;
9334;SDS011;4706;41.844;26.082;2023-07-13T11:41:03;6.63;;;5.93;;
9334;SDS011;4706;41.844;26.082;2023-07-13T11:43:30;6.45;;;5.90;;
9334;SDS011;4706;41.844;26.082;2023-07-13T11:45:58;7.47;;;6.25;;
9334;SDS011;4706;41.844;26.082;2023-07-13T11:48:27;6.65;;;6.03;;
9334;SDS011;4706;41.844;26.082;2023-07-13T11:50:55;6.55;;;6.03;;
9334;SDS011;4706;41.844;26.082;2023-07-13T11:53:29;6.03;;;5.13;;
9334;SDS011;4706;41.844;26.082;2023-07-13T11:56:01;6.28;;;5.60;;
9334;SDS011;4706;41.844;26.082;2023-07-13T11:58:26;6.82;;;5.70;;
9334;SDS011;4706;41.844;26.082;2023-07-13T12:00:53;6.47;;;5.97;;
9334;SDS011;4706;41.844;26.082;2023-07-13T12:03:22;6.38;;;5.78;;
9334;SDS011;4706;41.844;26.082;2023-07-13T12:06:04;6.07;;;5.57;;
9334;SDS011;4706;41.844;26.082;2023-07-13T12:08:31;5.25;;;4.85;;
9334;SDS011;4706;41.844;26.082;2023-07-13T12:11:04;5.95;;;4.93;;
9334;SDS011;4706;41.844;26.082;2023-07-13T12:13:37;6.30;;;4.85;;
9334;SDS011;4706;41.844;26.082;2023-07-13T12:16:26;5.28;;;4.88;;
9334;SDS011;4706;41.844;26.082;2023-07-13T12:18:58;6.13;;;5.05;;
9334;SDS011;4706;41.844;26.082;2023-07-13T12:21:36;5.28;;;4.55;;
9334;SDS011;4706;41.844;26.082;2023-07-13T12:24:03;5.25;;;4.80;;
9334;SDS011;4706;41.844;26.082;2023-07-13T12:26:30;5.65;;;5.07;;
9334;SDS011;4706;41.844;26.082;2023-07-13T12:28:58;4.82;;;4.50;;
9334;SDS011;4706;41.844;26.082;2023-07-13T12:34:23;5.53;;;5.03;;
9334;SDS011;4706;41.844;26.082;2023-07-13T12:36:50;4.80;;;4.40;;
9334;SDS011;4706;41.844;26.082;2023-07-13T12:39:22;5.10;;;4.70;;
9334;SDS011;4706;41.844;26.082;2023-07-13T12:42:00;4.60;;;4.18;;
9334;SDS011;4706;41.844;26.082;2023-07-13T12:45:05;4.25;;;3.95;;
9334;SDS011;4706;41.844;26.082;2023-07-13T12:47:43;4.78;;;4.30;;
9334;SDS011;4706;41.844;26.082;2023-07-13T12:50:19;4.60;;;4.25;;
9334;SDS011;4706;41.844;26.082;2023-07-13T12:52:51;5.60;;;5.10;;
9334;SDS011;4706;41.844;26.082;2023-07-13T12:55:19;4.78;;;4.38;;
9334;SDS011;4706;41.844;26.082;2023-07-13T12:57:50;6.18;;;5.07;;
9334;SDS011;4706;41.844;26.082;2023-07-13T13:00:31;5.43;;;4.70;;
9334;SDS011;4706;41.844;26.082;2023-07-13T13:03:07;8.00;;;5.45;;
9334;SDS011;4706;41.844;26.082;2023-07-13T13:05:46;6.30;;;5.70;;
9334;SDS011;4706;41.844;26.082;2023-07-13T13:08:12;9.25;;;5.55;;
9334;SDS011;4706;41.844;26.082;2023-07-13T13:10:38;6.75;;;6.15;;
9334;SDS011;4706;41.844;26.082;2023-07-13T13:13:04;6.18;;;5.65;;
9334;SDS011;4706;41.844;26.082;2023-07-13T13:15:29;6.32;;;5.72;;
9334;SDS011;4706;41.844;26.082;2023-07-13T13:17:55;5.50;;;5.00;;
9334;SDS011;4706;41.844;26.082;2023-07-13T13:20:23;6.70;;;5.15;;
9334;SDS011;4706;41.844;26.082;2023-07-13T13:22:50;5.65;;;5.03;;
9334;SDS011;4706;41.844;26.082;2023-07-13T13:25:16;5.18;;;4.60;;
9334;SDS011;4706;41.844;26.082;2023-07-13T13:27:43;6.63;;;5.07;;
9334;SDS011;4706;41.844;26.082;2023-07-13T13:30:14;5.00;;;4.43;;
9334;SDS011;4706;41.844;26.082;2023-07-13T13:32:42;5.20;;;4.80;;
9334;SDS011;4706;41.844;26.082;2023-07-13T13:35:13;7.93;;;5.43;;
9334;SDS011;4706;41.844;26.082;2023-07-13T13:37:40;6.65;;;5.13;;
9334;SDS011;4706;41.844;26.082;2023-07-13T13:42:46;5.43;;;4.90;;
9334;SDS011;4706;41.844;26.082;2023-07-13T13:45:12;8.90;;;6.38;;
9334;SDS011;4706;41.844;26.082;2023-07-13T13:47:38;5.65;;;5.20;;
9334;SDS011;4706;41.844;26.082;2023-07-13T13:52:37;7.63;;;4.93;;
9334;SDS011;4706;41.844;26.082;2023-07-13T13:55:05;6.10;;;5.50;;
9334;SDS011;4706;41.844;26.082;2023-07-13T13:57:37;6.50;;;5.47;;
9334;SDS011;4706;41.844;26.082;2023-07-13T14:00:04;6.00;;;5.28;;
9334;SDS011;4706;41.844;26.082;2023-07-13T14:02:30;7.38;;;6.70;;
9334;SDS011;4706;41.844;26.082;2023-07-13T14:04:58;10.82;;;7.47;;
9334;SDS011;4706;41.844;26.082;2023-07-13T14:07:25;5.32;;;4.68;;
9334;SDS011;4706;41.844;26.082;2023-07-13T14:09:52;6.40;;;5.78;;
9334;SDS011;4706;41.844;26.082;2023-07-13T14:12:22;6.60;;;5.15;;
9334;SDS011;4706;41.844;26.082;2023-07-13T14:14:51;7.25;;;4.93;;
9334;SDS011;4706;41.844;26.082;2023-07-13T14:17:24;5.72;;;5.18;;
9334;SDS011;4706;41.844;26.082;2023-07-13T14:19:52;8.20;;;5.45;;
9334;SDS011;4706;41.844;26.082;2023-07-13T14:22:22;7.22;;;5.85;;
9334;SDS011;4706;41.844;26.082;2023-07-13T14:24:54;5.75;;;5.15;;
9334;SDS011;4706;41.844;26.082;2023-07-13T14:27:20;6.18;;;5.25;;
9334;SDS011;4706;41.844;26.082;2023-07-13T14:29:46;7.28;;;5.30;;
9334;SDS011;4706;41.844;26.082;2023-07-13T14:32:12;6.47;;;5.07;;
9334;SDS011;4706;41.844;26.082;2023-07-13T14:34:38;9.30;;;5.53;;
9334;SDS011;4706;41.844;26.082;2023-07-13T14:37:04;5.70;;;4.78;;
9334;SDS011;4706;41.844;26.082;2023-07-13T14:39:31;7.13;;;5.75;;
9334;SDS011;4706;41.844;26.082;2023-07-13T14:41:57;6.15;;;5.05;;
9334;SDS011;4706;41.844;26.082;2023-07-13T14:44:26;6.20;;;5.38;;
9334;SDS011;4706;41.844;26.082;2023-07-13T14:46:54;6.90;;;5.45;;
9334;SDS011;4706;41.844;26.082;2023-07-13T14:52:02;7.00;;;5.85;;
9334;SDS011;4706;41.844;26.082;2023-07-13T14:54:40;6.65;;;5.50;;
9334;SDS011;4706;41.844;26.082;2023-07-13T14:57:12;5.90;;;5.38;;
9334;SDS011;4706;41.844;26.082;2023-07-13T14:59:38;8.27;;;5.82;;
9334;SDS011;4706;41.844;26.082;2023-07-13T15:02:27;8.77;;;7.03;;
9334;SDS011;4706;41.844;26.082;2023-07-13T15:04:54;8.20;;;5.70;;
9334;SDS011;4706;41.844;26.082;2023-07-13T15:07:21;7.55;;;5.68;;
9334;SDS011;4706;41.844;26.082;2023-07-13T15:09:48;8.18;;;6.22;;
9334;SDS011;4706;41.844;26.082;2023-07-13T15:12:15;6.57;;;5.78;;
9334;SDS011;4706;41.844;26.082;2023-07-13T15:14:41;9.38;;;6.15;;
9334;SDS011;4706;41.844;26.082;2023-07-13T15:17:18;9.68;;;6.72;;
9334;SDS011;4706;41.844;26.082;2023-07-13T15:19:48;10.50;;;6.20;;
9334;SDS011;4706;41.844;26.082;2023-07-13T15:22:14;9.52;;;5.57;;
9334;SDS011;4706;41.844;26.082;2023-07-13T15:24:40;6.53;;;5.90;;
9334;SDS011;4706;41.844;26.082;2023-07-13T15:27:09;9.68;;;5.88;;
9334;SDS011;4706;41.844;26.082;2023-07-13T15:29:37;7.43;;;6.00;;
9334;SDS011;4706;41.844;26.082;2023-07-13T15:32:02;9.38;;;7.00;;
9334;SDS011;4706;41.844;26.082;2023-07-13T15:34:28;8.82;;;7.97;;
9334;SDS011;4706;41.844;26.082;2023-07-13T15:36:53;10.68;;;8.10;;
9334;SDS011;4706;41.844;26.082;2023-07-13T15:39:19;9.48;;;7.05;;
9334;SDS011;4706;41.844;26.082;2023-07-13T15:41:45;8.20;;;7.43;;
9334;SDS011;4706;41.844;26.082;2023-07-13T15:44:33;9.10;;;7.35;;
9334;SDS011;4706;41.844;26.082;2023-07-13T15:46:58;7.88;;;5.70;;
9334;SDS011;4706;41.844;26.082;2023-07-13T15:49:25;6.93;;;6.20;;
9334;SDS011;4706;41.844;26.082;2023-07-13T15:51:51;7.15;;;6.45;;
9334;SDS011;4706;41.844;26.082;2023-07-13T15:54:17;9.80;;;6.32;;